Time;durP1;ratioP1;P1;durP2;ratioP2;P2;SDS_P1;SDS_P2;PMS_P1;PMS_P2;Temp;Humidity;BMP_temperature;BMP_pressure;BME280_temperature;BME280_humidity;BME280_pressure;Samples;Min_cycle;Max_cycle;Signal;HPM_P1;HPM_P2
2024/01/24 00:01:06;;;;;;;;;;;;;;;;;;5072202;28;20829;-81
2024/01/24 00:03:37;;;;;;;;;;;;;;;;;;5070697;28;19997;-81
2024/01/24 00:06:02;;;;;;;;;;;;;;;;;;5070638;28;19920;-81
2024/01/24 00:08:31;;;;;;;;;;;;;;;;;;5066936;28;20413;-83
2024/01/24 00:11:01;;;;;;;;;;;;;;;;;;5054802;28;19912;-81
2024/01/24 00:13:29;;;;;;;;;;;;;;;;;;5071031;28;19928;-79
2024/01/24 00:15:56;;;;;;;;;;;;;;;;;;5051885;28;20166;-84
2024/01/24 00:18:24;;;;;;;;;;;;;;;;;;5069256;28;20004;-82
2024/01/24 00:20:54;;;;;;;;;;;;;;;;;;5070615;28;20389;-81
2024/01/24 00:23:23;;;;;;;;;;;;;;;;;;5068988;28;19918;-82
2024/01/24 00:25:50;;;;;;;;;;;;;;;;;;5053695;28;19912;-81
2024/01/24 00:28:17;;;;;;;;;;;;;;;;;;5072320;28;19920;-82
2024/01/24 00:31:03;;;;;;;;;;;;;;;;;;5071080;28;19935;-82
2024/01/24 00:33:29;;;;;;;;;;;;;;;;;;5067797;28;20007;-82
2024/01/24 00:35:56;;;;;;;;;;;;;;;;;;5074934;28;20323;-81
2024/01/24 00:38:23;;;;;;;;;;;;;;;;;;5069828;28;19924;-82
2024/01/24 00:40:50;;;;;;;;;;;;;;;;;;5053483;28;19912;-82
2024/01/24 00:43:18;;;;;;;;;;;;;;;;;;5069571;28;19911;-81
2024/01/24 00:45:45;;;;;;;;;;;;;;;;;;5069418;28;19937;-82
2024/01/24 00:48:11;;;;;;;;;;;;;;;;;;5053428;28;20793;-80
2024/01/24 00:50:38;;;;;;;;;;;;;;;;;;5067346;28;19915;-80
2024/01/24 00:53:04;;;;;;;;;;;;;;;;;;5070377;28;19919;-80
2024/01/24 00:55:31;;;;;;;;;;;;;;;;;;5050430;28;19913;-82
2024/01/24 00:57:58;;;;;;;;;;;;;;;;;;5070983;28;19919;-80
2024/01/24 01:00:26;;;;;;;;;;;;;;;;;;5069526;28;20541;-82
2024/01/24 01:02:53;;;;;;;;;;;;;;;;;;5069978;28;19912;-82
2024/01/24 01:05:19;;;;;;;;;;;;;;;;;;5068040;28;19923;-82
2024/01/24 01:07:46;;;;;;;;;;;;;;;;;;5069748;28;19912;-81
2024/01/24 01:10:13;;;;;;;;;;;;;;;;;;5070859;28;20449;-81
2024/01/24 01:12:40;;;;;;;;;;;;;;;;;;5048976;28;22512;-81
2024/01/24 01:15:07;;;;;;;;;;;;;;;;;;5049320;28;19912;-81
2024/01/24 01:17:35;;;;;;;;;;;;;;;;;;5047508;28;19916;-80
2024/01/24 01:20:03;;;;;;;;;;;;;;;;;;5050749;28;19962;-81
2024/01/24 01:22:32;;;;;;;;;;;;;;;;;;5049808;28;19912;-81
2024/01/24 01:24:59;;;;;;;;;;;;;;;;;;5049791;28;19908;-80
2024/01/24 01:27:25;;;;;;;;;;;;;;;;;;5049763;28;19911;-81
2024/01/24 01:29:52;;;;;;;;;;;;;;;;;;5050283;28;19955;-82
2024/01/24 01:32:19;;;;;;;;;;;;;;;;;;5052829;28;20439;-82
2024/01/24 01:35:06;;;;;;;;;;;;;;;;;;5057841;28;19919;-82
2024/01/24 01:37:37;;;;;;;;;;;;;;;;;;5052412;28;20039;-82
2024/01/24 01:40:06;;;;;;;;;;;;;;;;;;5055729;28;20272;-84
2024/01/24 01:42:43;;;;;;;;;;;;;;;;;;5052939;28;19912;-83
2024/01/24 01:45:29;;;;;;;;;;;;;;;;;;5054232;28;20364;-82
2024/01/24 01:47:57;;;;;;;;;;;;;;;;;;5057722;28;19916;-82
2024/01/24 01:50:24;;;;;;;;;;;;;;;;;;5054142;28;20307;-83
2024/01/24 01:52:52;;;;;;;;;;;;;;;;;;5057652;28;19912;-82
2024/01/24 01:55:18;;;;;;;;;;;;;;;;;;5057219;28;20026;-82
2024/01/24 01:57:44;;;;;;;;;;;;;;;;;;5050238;27;19917;-82
2024/01/24 02:00:18;;;;;;;;;;;;;;;;;;5045720;28;19951;-82
2024/01/24 02:02:47;;;;;;;;;;;;;;;;;;5054731;28;19913;-82
2024/01/24 02:05:34;;;;;;;;;;;;;;;;;;5049447;28;19920;-82
2024/01/24 02:08:01;;;;;;;;;;;;;;;;;;5054966;28;20003;-83
2024/01/24 02:10:28;;;;;;;;;;;;;;;;;;5051199;28;19917;-82
2024/01/24 02:12:55;;;;;;;;;;;;;;;;;;5068334;28;19920;-81
2024/01/24 02:15:23;;;;;;;;;;;;;;;;;;5069639;27;19966;-81
2024/01/24 02:17:50;;;;;;;;;;;;;;;;;;5057498;28;19918;-81
2024/01/24 02:20:18;;;;;;;;;;;;;;;;;;5055180;28;20007;-81
2024/01/24 02:22:46;;;;;;;;;;;;;;;;;;5075146;28;19912;-81
2024/01/24 02:25:12;;;;;;;;;;;;;;;;;;5068839;28;20386;-81
2024/01/24 02:27:39;;;;;;;;;;;;;;;;;;5073693;27;19938;-80
2024/01/24 02:30:07;;;;;;;;;;;;;;;;;;5058372;28;19915;-81
2024/01/24 02:32:33;;;;;;;;;;;;;;;;;;5073742;27;20395;-81
2024/01/24 02:35:01;;;;;;;;;;;;;;;;;;5071247;28;20027;-80
2024/01/24 02:37:28;;;;;;;;;;;;;;;;;;5071199;27;20837;-81
2024/01/24 02:39:55;;;;;;;;;;;;;;;;;;5058070;28;19919;-81
2024/01/24 02:42:23;;;;;;;;;;;;;;;;;;5059876;28;19919;-81
2024/01/24 02:44:50;;;;;;;;;;;;;;;;;;5056333;28;19919;-81
2024/01/24 02:47:21;;;;;;;;;;;;;;;;;;5073889;28;19912;-82
2024/01/24 02:49:47;;;;;;;;;;;;;;;;;;5051935;28;19916;-81
2024/01/24 02:52:14;;;;;;;;;;;;;;;;;;5074139;28;19919;-82
2024/01/24 02:54:45;;;;;;;;;;;;;;;;;;5066526;28;19951;-81
2024/01/24 02:57:13;;;;;;;;;;;;;;;;;;5070146;28;19912;-81
2024/01/24 02:59:40;;;;;;;;;;;;;;;;;;5053267;28;19912;-81
2024/01/24 03:02:06;;;;;;;;;;;;;;;;;;5073437;28;20006;-81
2024/01/24 03:04:33;;;;;;;;;;;;;;;;;;5069931;28;19949;-81
2024/01/24 03:06:59;;;;;;;;;;;;;;;;;;5074792;28;19912;-81
2024/01/24 03:09:26;;;;;;;;;;;;;;;;;;5069430;27;19916;-81
2024/01/24 03:11:53;;;;;;;;;;;;;;;;;;5068215;28;19916;-80
2024/01/24 03:14:21;;;;;;;;;;;;;;;;;;5071134;28;19961;-80
2024/01/24 03:16:48;;;;;;;;;;;;;;;;;;5071053;28;20019;-81
2024/01/24 03:19:15;;;;;;;;;;;;;;;;;;5074049;28;19962;-80
2024/01/24 03:21:43;;;;;;;;;;;;;;;;;;5052476;28;19918;-81
2024/01/24 03:24:10;;;;;;;;;;;;;;;;;;5071403;28;19934;-80
2024/01/24 03:26:37;;;;;;;;;;;;;;;;;;5070288;28;19912;-80
2024/01/24 03:29:04;;;;;;;;;;;;;;;;;;5056098;28;19948;-80
2024/01/24 03:31:31;;;;;;;;;;;;;;;;;;5070334;28;20005;-81
2024/01/24 03:33:57;;;;;;;;;;;;;;;;;;5053951;28;19954;-81
2024/01/24 03:36:24;;;;;;;;;;;;;;;;;;5056344;28;20018;-83
2024/01/24 03:38:51;;;;;;;;;;;;;;;;;;5056745;28;19915;-81
2024/01/24 03:41:19;;;;;;;;;;;;;;;;;;5071018;28;19915;-81
2024/01/24 03:43:48;;;;;;;;;;;;;;;;;;5070047;28;20352;-81
2024/01/24 03:46:15;;;;;;;;;;;;;;;;;;5065415;28;19947;-81
2024/01/24 03:48:41;;;;;;;;;;;;;;;;;;5067167;28;19920;-82
2024/01/24 03:51:07;;;;;;;;;;;;;;;;;;5066880;28;19946;-82
2024/01/24 03:53:34;;;;;;;;;;;;;;;;;;5052606;28;19916;-83
2024/01/24 03:56:01;;;;;;;;;;;;;;;;;;5068929;28;19911;-81
2024/01/24 03:58:28;;;;;;;;;;;;;;;;;;5052602;28;19926;-80
2024/01/24 04:00:56;;;;;;;;;;;;;;;;;;5066160;28;19912;-80
2024/01/24 04:03:23;;;;;;;;;;;;;;;;;;5052338;28;19927;-81
2024/01/24 04:05:50;;;;;;;;;;;;;;;;;;5054225;28;20019;-81
2024/01/24 04:08:18;;;;;;;;;;;;;;;;;;5073992;28;19912;-82
2024/01/24 04:10:43;;;;;;;;;;;;;;;;;;5070061;28;19912;-81
2024/01/24 04:13:10;;;;;;;;;;;;;;;;;;5073406;28;19920;-80
2024/01/24 04:15:36;;;;;;;;;;;;;;;;;;5064356;28;19934;-81
2024/01/24 04:18:02;;;;;;;;;;;;;;;;;;5054412;28;19912;-82
2024/01/24 04:20:29;;;;;;;;;;;;;;;;;;5070129;28;19945;-82
2024/01/24 04:22:57;;;;;;;;;;;;;;;;;;5054706;28;19917;-82
2024/01/24 04:25:24;;;;;;;;;;;;;;;;;;5067349;28;19912;-81
2024/01/24 04:27:50;;;;;;;;;;;;;;;;;;5053555;28;20588;-80
2024/01/24 04:30:19;;;;;;;;;;;;;;;;;;5068388;28;19954;-80
2024/01/24 04:32:46;;;;;;;;;;;;;;;;;;5050594;28;19919;-81
2024/01/24 04:35:13;;;;;;;;;;;;;;;;;;5052586;28;20701;-80
2024/01/24 04:37:41;;;;;;;;;;;;;;;;;;5069849;28;20753;-81
2024/01/24 04:40:08;;;;;;;;;;;;;;;;;;5053356;28;19918;-81
2024/01/24 04:42:35;;;;;;;;;;;;;;;;;;5066561;28;20020;-82
2024/01/24 04:45:01;;;;;;;;;;;;;;;;;;5050842;28;19920;-81
2024/01/24 04:47:29;;;;;;;;;;;;;;;;;;5065467;28;19912;-81
2024/01/24 04:49:56;;;;;;;;;;;;;;;;;;5052917;28;20319;-81
2024/01/24 04:52:24;;;;;;;;;;;;;;;;;;5067604;28;20280;-81
2024/01/24 04:54:52;;;;;;;;;;;;;;;;;;5069701;28;20297;-81
2024/01/24 04:57:22;;;;;;;;;;;;;;;;;;5067345;28;19918;-81
2024/01/24 04:59:49;;;;;;;;;;;;;;;;;;5053374;28;20316;-82
2024/01/24 05:02:16;;;;;;;;;;;;;;;;;;5052322;28;19923;-82
2024/01/24 05:04:44;;;;;;;;;;;;;;;;;;5067093;28;19966;-81
2024/01/24 05:07:11;;;;;;;;;;;;;;;;;;5051207;28;19908;-81
2024/01/24 05:09:38;;;;;;;;;;;;;;;;;;5068497;28;19915;-82
2024/01/24 05:12:04;;;;;;;;;;;;;;;;;;5050243;28;19927;-81
2024/01/24 05:14:31;;;;;;;;;;;;;;;;;;5048461;28;19962;-82
2024/01/24 05:16:59;;;;;;;;;;;;;;;;;;5050709;28;19912;-82
2024/01/24 05:19:26;;;;;;;;;;;;;;;;;;5041714;28;19947;-82
2024/01/24 05:21:54;;;;;;;;;;;;;;;;;;5049096;28;20451;-81
2024/01/24 05:24:21;;;;;;;;;;;;;;;;;;5047434;28;19947;-82
2024/01/24 05:26:48;;;;;;;;;;;;;;;;;;5050861;28;20491;-82
2024/01/24 05:29:14;;;;;;;;;;;;;;;;;;5052015;28;20602;-81
2024/01/24 05:31:41;;;;;;;;;;;;;;;;;;5049827;28;19917;-81
2024/01/24 05:34:09;;;;;;;;;;;;;;;;;;5049818;28;19981;-81
2024/01/24 05:36:37;;;;;;;;;;;;;;;;;;5043595;28;20035;-81
2024/01/24 05:39:06;;;;;;;;;;;;;;;;;;5047140;28;19928;-81
2024/01/24 05:41:43;;;;;;;;;;;;;;;;;;5043449;28;20334;-81
2024/01/24 05:44:12;;;;;;;;;;;;;;;;;;5050236;28;20478;-80
2024/01/24 05:46:40;;;;;;;;;;;;;;;;;;5047759;28;20006;-80
2024/01/24 05:49:06;;;;;;;;;;;;;;;;;;5047421;28;19917;-81
2024/01/24 05:51:33;;;;;;;;;;;;;;;;;;5040021;28;19990;-83
2024/01/24 05:54:00;;;;;;;;;;;;;;;;;;5049534;28;19908;-81
2024/01/24 05:56:27;;;;;;;;;;;;;;;;;;5047076;28;19912;-81
2024/01/24 05:58:54;;;;;;;;;;;;;;;;;;5048527;28;19912;-81
2024/01/24 06:01:21;;;;;;;;;;;;;;;;;;5048471;28;20030;-82
2024/01/24 06:03:49;;;;;;;;;;;;;;;;;;5050708;28;20493;-81
2024/01/24 06:06:16;;;;;;;;;;;;;;;;;;5048060;28;19916;-79
2024/01/24 06:08:44;;;;;;;;;;;;;;;;;;5045460;28;19920;-83
2024/01/24 06:11:19;;;;;;;;;;;;;;;;;;5046652;28;20003;-82
2024/01/24 06:13:46;;;;;;;;;;;;;;;;;;5065279;28;19920;-82
2024/01/24 06:16:22;;;;;;;;;;;;;;;;;;5068661;28;20379;-82
2024/01/24 06:18:48;;;;;;;;;;;;;;;;;;5055527;28;19912;-83
2024/01/24 06:21:14;;;;;;;;;;;;;;;;;;5056674;28;19912;-81
2024/01/24 06:23:41;;;;;;;;;;;;;;;;;;5071874;28;20910;-82
2024/01/24 06:26:08;;;;;;;;;;;;;;;;;;5069350;28;19915;-82
2024/01/24 06:28:36;;;;;;;;;;;;;;;;;;5072567;28;19922;-82
2024/01/24 06:31:03;;;;;;;;;;;;;;;;;;5075114;28;19912;-82
2024/01/24 06:33:29;;;;;;;;;;;;;;;;;;5069046;28;19974;-82
2024/01/24 06:35:57;;;;;;;;;;;;;;;;;;5074631;28;19920;-80
2024/01/24 06:38:25;;;;;;;;;;;;;;;;;;5069928;28;20148;-82
2024/01/24 06:40:52;;;;;;;;;;;;;;;;;;5056808;28;19912;-82
2024/01/24 06:43:20;;;;;;;;;;;;;;;;;;5069876;28;19912;-81
2024/01/24 06:45:56;;;;;;;;;;;;;;;;;;5072633;28;20006;-82
2024/01/24 06:48:43;;;;;;;;;;;;;;;;;;5071213;28;20811;-82
2024/01/24 06:51:30;;;;;;;;;;;;;;;;;;5071839;27;19958;-82
2024/01/24 06:53:58;;;;;;;;;;;;;;;;;;5056131;28;20351;-82
2024/01/24 06:56:25;;;;;;;;;;;;;;;;;;5052477;28;21485;-81
2024/01/24 06:58:51;;;;;;;;;;;;;;;;;;5057038;28;19999;-81
2024/01/24 07:01:18;;;;;;;;;;;;;;;;;;5057308;28;19916;-81
2024/01/24 07:03:45;;;;;;;;;;;;;;;;;;5055164;28;19919;-81
2024/01/24 07:06:13;;;;;;;;;;;;;;;;;;5057320;28;19918;-82
2024/01/24 07:08:40;;;;;;;;;;;;;;;;;;5068678;28;19923;-82
2024/01/24 07:11:06;;;;;;;;;;;;;;;;;;5072855;28;19912;-82
2024/01/24 07:13:34;;;;;;;;;;;;;;;;;;5050308;28;19924;-83
2024/01/24 07:16:04;;;;;;;;;;;;;;;;;;5052475;28;19916;-82
2024/01/24 07:18:34;;;;;;;;;;;;;;;;;;5048275;28;20074;-83
2024/01/24 07:21:01;;;;;;;;;;;;;;;;;;5055354;28;20585;-83
2024/01/24 07:23:31;;;;;;;;;;;;;;;;;;5053049;28;21308;-82
2024/01/24 07:25:57;;;;;;;;;;;;;;;;;;5054043;28;20532;-83
2024/01/24 07:28:28;;;;;;;;;;;;;;;;;;5051450;28;19912;-83
2024/01/24 07:30:56;;;;;;;;;;;;;;;;;;5053962;28;19916;-83
2024/01/24 07:33:23;;;;;;;;;;;;;;;;;;5053232;28;20668;-82
2024/01/24 07:35:50;;;;;;;;;;;;;;;;;;5055682;28;19970;-82
2024/01/24 07:38:18;;;;;;;;;;;;;;;;;;5052829;28;19923;-83
2024/01/24 07:40:46;;;;;;;;;;;;;;;;;;5056302;28;20023;-81
2024/01/24 07:43:11;;;;;;;;;;;;;;;;;;5048979;28;20471;-81
2024/01/24 07:45:39;;;;;;;;;;;;;;;;;;5050934;28;19919;-82
2024/01/24 07:48:07;;;;;;;;;;;;;;;;;;5055675;28;20653;-82
2024/01/24 07:50:37;;;;;;;;;;;;;;;;;;5051961;28;19959;-82
2024/01/24 07:53:09;;;;;;;;;;;;;;;;;;5054460;28;20475;-84
2024/01/24 07:55:37;;;;;;;;;;;;;;;;;;5051832;28;19951;-83
2024/01/24 07:58:03;;;;;;;;;;;;;;;;;;5054068;28;19912;-84
2024/01/24 08:00:31;;;;;;;;;;;;;;;;;;5050545;28;19919;-84
2024/01/24 08:02:58;;;;;;;;;;;;;;;;;;5055428;28;19912;-84
2024/01/24 08:05:29;;;;;;;;;;;;;;;;;;5049656;28;19912;-84
2024/01/24 08:07:57;;;;;;;;;;;;;;;;;;5054325;28;19916;-85
2024/01/24 08:10:24;;;;;;;;;;;;;;;;;;5049875;28;19916;-85
2024/01/24 08:12:51;;;;;;;;;;;;;;;;;;5055559;28;20339;-84
2024/01/24 08:15:19;;;;;;;;;;;;;;;;;;5052163;28;20003;-82
2024/01/24 08:17:47;;;;;;;;;;;;;;;;;;5052994;28;19944;-83
2024/01/24 08:20:17;;;;;;;;;;;;;;;;;;5051895;28;19916;-84
2024/01/24 08:22:52;;;;;;;;;;;;;;;;;;5055916;28;19912;-86
2024/01/24 08:25:18;;;;;;;;;;;;;;;;;;5053050;28;19918;-83
2024/01/24 08:27:45;;;;;;;;;;;;;;;;;;5047622;28;19920;-83
2024/01/24 08:30:13;;;;;;;;;;;;;;;;;;5049217;28;20795;-85
2024/01/24 08:32:41;;;;;;;;;;;;;;;;;;5050183;28;19951;-84
2024/01/24 08:35:10;;;;;;;;;;;;;;;;;;5047627;28;19912;-83
2024/01/24 08:37:37;;;;;;;;;;;;;;;;;;5049992;28;19912;-83
2024/01/24 08:40:05;;;;;;;;;;;;;;;;;;5051107;28;19913;-81
2024/01/24 08:42:33;;;;;;;;;;;;;;;;;;5048209;28;19966;-83
2024/01/24 08:45:00;;;;;;;;;;;;;;;;;;5051989;28;19912;-80
2024/01/24 08:47:28;;;;;;;;;;;;;;;;;;5051726;28;19923;-81
2024/01/24 08:49:56;;;;;;;;;;;;;;;;;;5047146;28;19926;-81
2024/01/24 08:52:24;;;;;;;;;;;;;;;;;;5049701;28;20382;-82
2024/01/24 08:54:51;;;;;;;;;;;;;;;;;;5051738;28;19911;-81
2024/01/24 08:57:18;;;;;;;;;;;;;;;;;;5049876;28;19913;-81
2024/01/24 08:59:46;;;;;;;;;;;;;;;;;;5052062;28;20272;-80
2024/01/24 09:02:13;;;;;;;;;;;;;;;;;;5052100;28;20433;-82
2024/01/24 09:04:40;;;;;;;;;;;;;;;;;;5053602;28;20948;-84
2024/01/24 09:07:08;;;;;;;;;;;;;;;;;;5053844;28;19924;-84
2024/01/24 09:09:36;;;;;;;;;;;;;;;;;;5055045;28;20011;-86
2024/01/24 09:12:03;;;;;;;;;;;;;;;;;;5056546;28;19916;-83
2024/01/24 09:14:32;;;;;;;;;;;;;;;;;;5069302;28;19916;-82
2024/01/24 09:16:59;;;;;;;;;;;;;;;;;;5072842;28;19965;-82
2024/01/24 09:19:25;;;;;;;;;;;;;;;;;;5070990;28;19919;-81
2024/01/24 09:21:52;;;;;;;;;;;;;;;;;;5055098;28;19912;-81
2024/01/24 09:24:19;;;;;;;;;;;;;;;;;;5067697;28;19966;-81
2024/01/24 09:26:47;;;;;;;;;;;;;;;;;;5052546;28;19951;-82
2024/01/24 09:29:14;;;;;;;;;;;;;;;;;;5068054;28;19961;-82
2024/01/24 09:31:45;;;;;;;;;;;;;;;;;;5071489;28;20060;-83
2024/01/24 09:34:12;;;;;;;;;;;;;;;;;;5057920;28;20024;-85
2024/01/24 09:36:40;;;;;;;;;;;;;;;;;;5077049;28;20018;-87
2024/01/24 09:39:07;;;;;;;;;;;;;;;;;;5068992;28;19919;-84
2024/01/24 09:41:35;;;;;;;;;;;;;;;;;;5073192;28;19955;-84
2024/01/24 09:44:02;;;;;;;;;;;;;;;;;;5075951;28;19973;-85
2024/01/24 09:46:32;;;;;;;;;;;;;;;;;;5069274;28;19930;-85
2024/01/24 09:48:59;;;;;;;;;;;;;;;;;;5061982;28;19923;-86
2024/01/24 09:51:26;;;;;;;;;;;;;;;;;;5058007;28;19912;-86
2024/01/24 09:53:53;;;;;;;;;;;;;;;;;;5078588;28;19920;-86
2024/01/24 09:56:21;;;;;;;;;;;;;;;;;;5080862;27;20773;-87
2024/01/24 09:58:57;;;;;;;;;;;;;;;;;;5083163;28;20581;-87
2024/01/24 10:01:25;;;;;;;;;;;;;;;;;;5061537;28;19912;-87
2024/01/24 10:03:51;;;;;;;;;;;;;;;;;;5064772;28;19919;-87
2024/01/24 10:06:19;;;;;;;;;;;;;;;;;;5077087;28;20054;-86
2024/01/24 10:08:46;;;;;;;;;;;;;;;;;;5077534;28;20406;-87
2024/01/24 10:11:12;;;;;;;;;;;;;;;;;;5078832;28;19918;-85
2024/01/24 10:13:39;;;;;;;;;;;;;;;;;;5055793;28;19920;-86
2024/01/24 10:16:07;;;;;;;;;;;;;;;;;;5059000;28;19913;-85
2024/01/24 10:18:35;;;;;;;;;;;;;;;;;;5055531;28;20388;-85
2024/01/24 10:21:05;;;;;;;;;;;;;;;;;;5056248;28;19916;-86
2024/01/24 10:23:33;;;;;;;;;;;;;;;;;;5052750;28;19912;-85
2024/01/24 10:26:02;;;;;;;;;;;;;;;;;;5053331;28;19912;-84
2024/01/24 10:28:29;;;;;;;;;;;;;;;;;;5053091;28;19997;-85
2024/01/24 10:30:56;;;;;;;;;;;;;;;;;;5052238;28;19920;-85
2024/01/24 10:33:22;;;;;;;;;;;;;;;;;;5053683;28;19919;-86
2024/01/24 10:35:48;;;;;;;;;;;;;;;;;;5060550;28;20012;-86
2024/01/24 10:38:16;;;;;;;;;;;;;;;;;;5061925;28;19987;-88
2024/01/24 10:40:43;;;;;;;;;;;;;;;;;;5057156;28;19989;-86
2024/01/24 10:43:11;;;;;;;;;;;;;;;;;;5060888;28;19973;-87
2024/01/24 10:45:39;;;;;;;;;;;;;;;;;;5056125;28;19916;-85
2024/01/24 10:48:05;;;;;;;;;;;;;;;;;;5055538;28;19986;-85
2024/01/24 10:50:31;;;;;;;;;;;;;;;;;;5055516;28;19920;-85
2024/01/24 10:52:58;;;;;;;;;;;;;;;;;;5055109;28;20021;-85
2024/01/24 10:55:26;;;;;;;;;;;;;;;;;;5053112;28;20508;-86
2024/01/24 10:57:53;;;;;;;;;;;;;;;;;;5056664;28;19913;-86
2024/01/24 11:00:22;;;;;;;;;;;;;;;;;;5055659;28;19919;-86
2024/01/24 11:02:50;;;;;;;;;;;;;;;;;;5054664;28;19912;-87
2024/01/24 11:05:16;;;;;;;;;;;;;;;;;;5057756;28;19966;-86
2024/01/24 11:07:43;;;;;;;;;;;;;;;;;;5049981;28;20465;-85
2024/01/24 11:10:11;;;;;;;;;;;;;;;;;;5055407;28;19916;-86
2024/01/24 11:12:38;;;;;;;;;;;;;;;;;;5052506;28;20382;-84
2024/01/24 11:15:09;;;;;;;;;;;;;;;;;;5054080;28;20721;-84
2024/01/24 11:17:37;;;;;;;;;;;;;;;;;;5053174;28;19920;-85
2024/01/24 11:20:05;;;;;;;;;;;;;;;;;;5054203;28;20675;-85
2024/01/24 11:22:32;;;;;;;;;;;;;;;;;;5052058;28;19916;-85
2024/01/24 11:25:00;;;;;;;;;;;;;;;;;;5051130;28;20722;-85
2024/01/24 11:27:27;;;;;;;;;;;;;;;;;;5050157;28;19970;-85
2024/01/24 11:30:17;;;;;;;;;;;;;;;;;;5049445;28;19923;-77
2024/01/24 11:32:54;;;;;;;;;;;;;;;;;;5049431;28;20685;-76
2024/01/24 11:35:21;;;;;;;;;;;;;;;;;;5049521;28;20320;-77
2024/01/24 11:37:48;;;;;;;;;;;;;;;;;;5045222;28;19912;-77
2024/01/24 11:40:15;;;;;;;;;;;;;;;;;;5053279;28;19981;-78
2024/01/24 11:42:43;;;;;;;;;;;;;;;;;;5053274;28;19916;-86
2024/01/24 11:45:15;;;;;;;;;;;;;;;;;;5055780;28;19977;-86
2024/01/24 11:47:45;;;;;;;;;;;;;;;;;;5059045;28;19916;-87
2024/01/24 11:50:31;;;;;;;;;;;;;;;;;;5050576;28;19917;-86
2024/01/24 11:52:58;;;;;;;;;;;;;;;;;;5051064;28;20019;-86
2024/01/24 11:55:24;;;;;;;;;;;;;;;;;;5051080;28;19966;-86
2024/01/24 11:57:51;;;;;;;;;;;;;;;;;;5053201;28;20051;-87
2024/01/24 12:00:19;;;;;;;;;;;;;;;;;;5052996;28;19964;-87
2024/01/24 12:02:50;;;;;;;;;;;;;;;;;;5052573;28;19916;-86
2024/01/24 12:05:36;;;;;;;;;;;;;;;;;;5046212;28;19969;-86
2024/01/24 12:08:03;;;;;;;;;;;;;;;;;;5046832;28;19912;-86
2024/01/24 12:10:30;;;;;;;;;;;;;;;;;;5047593;28;19965;-86
2024/01/24 12:13:17;;;;;;;;;;;;;;;;;;5062322;28;20629;-87
2024/01/24 12:15:48;;;;;;;;;;;;;;;;;;5053553;28;19911;-87
2024/01/24 12:18:16;;;;;;;;;;;;;;;;;;5053905;28;19908;-85
2024/01/24 12:20:43;;;;;;;;;;;;;;;;;;5068828;28;20899;-86
2024/01/24 12:23:10;;;;;;;;;;;;;;;;;;5071622;28;19908;-85
2024/01/24 12:25:38;;;;;;;;;;;;;;;;;;5052518;28;19916;-86
2024/01/24 12:28:05;;;;;;;;;;;;;;;;;;5053134;28;20467;-85
2024/01/24 12:30:35;;;;;;;;;;;;;;;;;;5071284;28;19923;-85
2024/01/24 12:33:02;;;;;;;;;;;;;;;;;;5058624;28;19973;-86
2024/01/24 12:35:29;;;;;;;;;;;;;;;;;;5073118;28;20122;-88
2024/01/24 12:37:57;;;;;;;;;;;;;;;;;;5068838;28;19916;-85
2024/01/24 12:40:24;;;;;;;;;;;;;;;;;;5066271;28;20011;-86
2024/01/24 12:42:51;;;;;;;;;;;;;;;;;;5067849;28;19915;-86
2024/01/24 12:45:18;;;;;;;;;;;;;;;;;;5069305;28;20382;-84
2024/01/24 12:47:45;;;;;;;;;;;;;;;;;;5064459;28;19912;-85
2024/01/24 12:50:12;;;;;;;;;;;;;;;;;;5069850;28;20338;-85
2024/01/24 12:52:40;;;;;;;;;;;;;;;;;;5067226;28;19912;-84
2024/01/24 12:55:07;;;;;;;;;;;;;;;;;;5072546;28;19907;-85
2024/01/24 12:57:34;;;;;;;;;;;;;;;;;;5072684;28;19918;-87
2024/01/24 13:00:05;;;;;;;;;;;;;;;;;;5053736;28;19908;-85
2024/01/24 13:02:33;;;;;;;;;;;;;;;;;;5063310;28;19916;-85
2024/01/24 13:05:00;;;;;;;;;;;;;;;;;;5056185;28;20188;-86
2024/01/24 13:07:27;;;;;;;;;;;;;;;;;;5068943;28;19919;-85
2024/01/24 13:09:55;;;;;;;;;;;;;;;;;;5071137;28;20167;-91
2024/01/24 13:12:22;;;;;;;;;;;;;;;;;;5050373;28;19912;-89
2024/01/24 13:14:49;;;;;;;;;;;;;;;;;;5058965;28;19916;-88
2024/01/24 13:17:15;;;;;;;;;;;;;;;;;;5071154;28;19912;-90
2024/01/24 13:19:44;;;;;;;;;;;;;;;;;;5080753;28;19943;-88
2024/01/24 13:22:11;;;;;;;;;;;;;;;;;;5060424;28;19919;-88
2024/01/24 13:24:39;;;;;;;;;;;;;;;;;;5077983;28;20389;-87
2024/01/24 13:27:07;;;;;;;;;;;;;;;;;;5070891;28;19919;-87
2024/01/24 13:29:34;;;;;;;;;;;;;;;;;;5062832;28;19916;-88
2024/01/24 13:32:01;;;;;;;;;;;;;;;;;;5074418;28;20355;-87
2024/01/24 13:34:28;;;;;;;;;;;;;;;;;;5083914;28;19918;-87
2024/01/24 13:37:16;;;;;;;;;;;;;;;;;;5081814;28;20259;-87
2024/01/24 13:39:46;;;;;;;;;;;;;;;;;;5073223;28;19912;-87
2024/01/24 13:42:13;;;;;;;;;;;;;;;;;;5056378;28;20422;-87
2024/01/24 13:44:41;;;;;;;;;;;;;;;;;;5065881;28;19912;-88
2024/01/24 13:47:08;;;;;;;;;;;;;;;;;;5075691;28;19916;-94
2024/01/24 13:49:37;;;;;;;;;;;;;;;;;;5055835;28;19973;-87
2024/01/24 13:52:05;;;;;;;;;;;;;;;;;;5072043;28;20377;-87
2024/01/24 13:54:31;;;;;;;;;;;;;;;;;;5069393;28;19920;-86
2024/01/24 13:56:57;;;;;;;;;;;;;;;;;;5054462;28;19969;-86
2024/01/24 13:59:23;;;;;;;;;;;;;;;;;;5064473;28;19911;-84
2024/01/24 14:01:50;;;;;;;;;;;;;;;;;;5054700;28;19950;-86
2024/01/24 14:04:17;;;;;;;;;;;;;;;;;;5074052;28;19912;-87
2024/01/24 14:06:45;;;;;;;;;;;;;;;;;;5068196;28;20006;-86
2024/01/24 14:09:13;;;;;;;;;;;;;;;;;;5047911;28;19916;-90
2024/01/24 14:11:41;;;;;;;;;;;;;;;;;;5071431;28;20002;-88
2024/01/24 14:14:11;;;;;;;;;;;;;;;;;;5041921;28;19928;-86
2024/01/24 14:16:38;;;;;;;;;;;;;;;;;;5025630;28;19913;-90
2024/01/24 14:19:04;;;;;;;;;;;;;;;;;;5028986;28;20000;-82
2024/01/24 14:21:32;;;;;;;;;;;;;;;;;;5026955;28;19913;-82
2024/01/24 14:24:00;;;;;;;;;;;;;;;;;;5028291;28;19924;-83
2024/01/24 14:26:30;;;;;;;;;;;;;;;;;;5027542;28;20011;-84
2024/01/24 14:28:57;;;;;;;;;;;;;;;;;;5030939;28;20028;-85
2024/01/24 14:31:25;;;;;;;;;;;;;;;;;;5028466;28;20297;-84
2024/01/24 14:33:52;;;;;;;;;;;;;;;;;;5028012;28;19919;-84
2024/01/24 14:36:18;;;;;;;;;;;;;;;;;;5028148;28;19923;-84
2024/01/24 14:38:45;;;;;;;;;;;;;;;;;;5028649;28;20436;-84
2024/01/24 14:41:13;;;;;;;;;;;;;;;;;;5033066;28;19909;-85
2024/01/24 14:43:41;;;;;;;;;;;;;;;;;;5028701;28;19924;-85
2024/01/24 14:46:11;;;;;;;;;;;;;;;;;;5030707;28;19944;-85
2024/01/24 14:48:38;;;;;;;;;;;;;;;;;;5027125;28;19942;-86
2024/01/24 14:51:05;;;;;;;;;;;;;;;;;;5046099;28;19955;-86
2024/01/24 14:53:31;;;;;;;;;;;;;;;;;;5031652;28;20408;-85
2024/01/24 14:55:58;;;;;;;;;;;;;;;;;;5033191;28;19986;-85
2024/01/24 14:58:24;;;;;;;;;;;;;;;;;;5037690;28;19913;-86
2024/01/24 15:00:51;;;;;;;;;;;;;;;;;;5034393;28;19912;-87
2024/01/24 15:03:18;;;;;;;;;;;;;;;;;;5033580;28;20001;-86
2024/01/24 15:05:46;;;;;;;;;;;;;;;;;;5026511;28;19919;-88
2024/01/24 15:08:15;;;;;;;;;;;;;;;;;;5034094;28;20014;-86
2024/01/24 15:10:45;;;;;;;;;;;;;;;;;;5028743;28;20636;-86
2024/01/24 15:13:11;;;;;;;;;;;;;;;;;;5046688;28;20352;-86
2024/01/24 15:15:37;;;;;;;;;;;;;;;;;;5077148;28;19911;-86
2024/01/24 15:18:05;;;;;;;;;;;;;;;;;;5057344;28;19962;-84
2024/01/24 15:20:33;;;;;;;;;;;;;;;;;;5071267;28;19916;-88
2024/01/24 15:23:20;;;;;;;;;;;;;;;;;;5070886;28;19912;-87
2024/01/24 15:25:56;;;;;;;;;;;;;;;;;;5065666;28;20174;-86
2024/01/24 15:28:24;;;;;;;;;;;;;;;;;;5069873;28;20746;-86
2024/01/24 15:30:51;;;;;;;;;;;;;;;;;;5054611;28;19920;-86
2024/01/24 15:33:17;;;;;;;;;;;;;;;;;;5073085;28;19912;-86
2024/01/24 15:35:45;;;;;;;;;;;;;;;;;;5073141;28;19912;-86
2024/01/24 15:38:15;;;;;;;;;;;;;;;;;;5069748;28;20006;-87
2024/01/24 15:40:41;;;;;;;;;;;;;;;;;;5068705;28;19957;-86
2024/01/24 15:43:09;;;;;;;;;;;;;;;;;;5069365;28;19912;-84
2024/01/24 15:45:38;;;;;;;;;;;;;;;;;;5065956;28;20022;-85
2024/01/24 15:48:06;;;;;;;;;;;;;;;;;;5069360;28;19918;-84
2024/01/24 15:50:33;;;;;;;;;;;;;;;;;;5053483;28;19955;-85
2024/01/24 15:53:00;;;;;;;;;;;;;;;;;;5070745;28;19911;-84
2024/01/24 15:55:27;;;;;;;;;;;;;;;;;;5069812;28;19923;-84
2024/01/24 15:57:54;;;;;;;;;;;;;;;;;;5075002;28;19965;-84
2024/01/24 16:00:22;;;;;;;;;;;;;;;;;;5053746;28;19912;-84
2024/01/24 16:02:49;;;;;;;;;;;;;;;;;;5055479;28;19931;-84
2024/01/24 16:05:16;;;;;;;;;;;;;;;;;;5071711;28;19923;-84
2024/01/24 16:07:43;;;;;;;;;;;;;;;;;;5050452;28;20506;-84
2024/01/24 16:10:11;;;;;;;;;;;;;;;;;;5071833;28;19993;-85
2024/01/24 16:12:38;;;;;;;;;;;;;;;;;;5066794;28;19919;-84
2024/01/24 16:15:05;;;;;;;;;;;;;;;;;;5070751;28;19912;-84
2024/01/24 16:17:31;;;;;;;;;;;;;;;;;;5069329;28;19994;-85
2024/01/24 16:19:58;;;;;;;;;;;;;;;;;;5070254;28;20379;-84
2024/01/24 16:22:27;;;;;;;;;;;;;;;;;;5049818;28;19955;-84
2024/01/24 16:24:54;;;;;;;;;;;;;;;;;;5049628;28;20359;-85
2024/01/24 16:27:22;;;;;;;;;;;;;;;;;;5075967;28;19912;-83
2024/01/24 16:29:48;;;;;;;;;;;;;;;;;;5074524;28;20824;-84
2024/01/24 16:32:15;;;;;;;;;;;;;;;;;;5072437;28;19933;-84
2024/01/24 16:34:43;;;;;;;;;;;;;;;;;;5058224;28;19943;-84
2024/01/24 16:37:09;;;;;;;;;;;;;;;;;;5059211;28;19911;-84
2024/01/24 16:39:35;;;;;;;;;;;;;;;;;;5053884;28;20860;-84
2024/01/24 16:42:05;;;;;;;;;;;;;;;;;;5063786;28;19912;-84
2024/01/24 16:44:31;;;;;;;;;;;;;;;;;;5065465;28;20467;-84
2024/01/24 16:46:59;;;;;;;;;;;;;;;;;;5069269;28;19912;-84
2024/01/24 16:49:25;;;;;;;;;;;;;;;;;;5066425;28;19924;-85
2024/01/24 16:51:52;;;;;;;;;;;;;;;;;;5073318;28;19912;-86